Terminal Aerodrome Forecast
Issued by NWS Sterling, VA

Current Version | Previous Version | Text Only | Print | Product List | Glossary Off
Versions: 1 2 3 4 5 6 7 8 9 10 11 12 13 14 15 16 17 18 19 20 21 22 23 24 25

000
FTUS41 KLWX 180902 AAB
TAFDCA
TAF AMD
KDCA 180902Z 1809/1906 VRB03KT P6SM BKN010
     FM181600 04006KT P6SM BKN020
     FM181800 05007KT P6SM BKN035
     FM190100 05007KT P6SM SCT100=

USA.gov is the U.S. government's official web portal to all federal, state and local government web resources and services.